• Join FlightAware (Why Join?)
  • Login
  • US Flag 
Rudolph Flight #1: Arrived! 
11:06AM EST


 

Airport Tracker/Info


-or-


 

Live Flight TrackerFlight Track Log ✈ SKW5476 ✈ 25-Apr-2013 ✈ KRDM - KPDX

Flight Track Log - Related Links

Times and Time Zones

All times are in EDT time to prevent confusion due to time zone crossing. See the SKW5476 flight status page for this flight to view local times or setup timezone preferences in your user account.

Time Position Orientation Groundspeed Altitude Reporting Facility
EDT Latitude Longitude Course Direction KTS MPH feet Rate Location/Type
05:31PM 44.3850 -121.5190 315° West  Level FlightAware Approximate
05:32PM 44.4440 -121.6016 315° West  Level FlightAware Approximate
05:33PM 44.5017 -121.6859 313° West  Level FlightAware Approximate
05:34PM 44.5587 -121.7714 313° West  Level FlightAware Approximate
05:35PM 44.6203 -121.8503 318° Northwest  Level FlightAware Approximate
05:36PM 44.6689 -121.9430 315° West  Level FlightAware Approximate
05:37PM 44.7280 -122.0258 315° West  Level FlightAware Approximate
05:38PM 44.7853 -122.1112 313° West  Level FlightAware Approximate
05:39PM 44.8424 -122.1969 313° West  Level FlightAware Approximate
05:40PM 44.8992 -122.2818 305° West  Level FlightAware Approximate
05:41PM 44.9575 -122.3650 305° West  Level FlightAware Approximate
05:42PM 45.0092 -122.4573 312° West  Level FlightAware Approximate
05:43PM 45.0650 -122.5450 312° West  Level FlightAware Approximate
05:44PM 45.1311 -122.6000 North  Level FlightAware Approximate
05:45PM 45.2146 -122.6000 North  Level FlightAware Approximate
05:46PM 45.2980 -122.6000 North  Level FlightAware Approximate
05:47PM 45.3811 -122.5932 North  Level FlightAware Approximate
05:48PM 45.4642 -122.5833 North  Level FlightAware Approximate
05:49PM 45.5476 -122.5833 North  Level FlightAware Approximate
05:50PM 45.5887 -122.5969 360° North  Level Estimated
05:51PM 45.5887 -122.5969 North  Level Estimated
05:52PM 45.5887 -122.5969 180° South  Level Estimated
05:53PM 45.5887 -122.5969 180° South  Level Estimated
05:54PM 45.5887 -122.5969 180° South  Level Estimated
05:55PM 45.5887 -122.5969 180° South  Level Estimated
05:56PM 45.5887 -122.5969 180° South  Level Estimated
05:57PM 45.5887 -122.5969 180° South  Level Estimated
05:58PM 45.5887 -122.5969 180° South  Level Estimated